sensor_id;sensor_type;location;lat;lon;timestamp;temperature;humidity
15160;DHT22;7680;48.800;9.680;2022-09-01T00:01:46;15.20;99.90
15160;DHT22;7680;48.800;9.680;2022-09-01T00:04:24;15.20;99.90
15160;DHT22;7680;48.800;9.680;2022-09-01T00:06:57;15.20;99.90
15160;DHT22;7680;48.800;9.680;2022-09-01T00:09:32;15.20;99.90
15160;DHT22;7680;48.800;9.680;2022-09-01T00:12:08;15.10;99.90
15160;DHT22;7680;48.800;9.680;2022-09-01T00:14:42;15.10;99.90
15160;DHT22;7680;48.800;9.680;2022-09-01T00:17:16;15.10;99.90
15160;DHT22;7680;48.800;9.680;2022-09-01T00:19:49;15.20;99.90
15160;DHT22;7680;48.800;9.680;2022-09-01T00:22:22;15.20;99.90
15160;DHT22;7680;48.800;9.680;2022-09-01T00:24:56;15.20;99.90
15160;DHT22;7680;48.800;9.680;2022-09-01T00:27:30;15.10;99.90
15160;DHT22;7680;48.800;9.680;2022-09-01T00:30:03;15.10;99.90
15160;DHT22;7680;48.800;9.680;2022-09-01T00:32:38;15.10;99.90
15160;DHT22;7680;48.800;9.680;2022-09-01T00:35:12;15.00;99.90
15160;DHT22;7680;48.800;9.680;2022-09-01T00:37:45;15.10;99.90
15160;DHT22;7680;48.800;9.680;2022-09-01T00:40:19;15.00;99.90
15160;DHT22;7680;48.800;9.680;2022-09-01T00:42:53;15.00;99.90
15160;DHT22;7680;48.800;9.680;2022-09-01T00:45:26;15.00;99.90
15160;DHT22;7680;48.800;9.680;2022-09-01T00:48:00;15.00;99.90
15160;DHT22;7680;48.800;9.680;2022-09-01T00:50:37;15.00;99.90
15160;DHT22;7680;48.800;9.680;2022-09-01T00:53:11;15.00;99.90
15160;DHT22;7680;48.800;9.680;2022-09-01T00:55:46;14.90;99.90
15160;DHT22;7680;48.800;9.680;2022-09-01T00:58:19;14.90;99.90
15160;DHT22;7680;48.800;9.680;2022-09-01T01:00:53;14.80;99.90
15160;DHT22;7680;48.800;9.680;2022-09-01T01:03:26;14.80;99.90
15160;DHT22;7680;48.800;9.680;2022-09-01T01:06:05;14.70;99.90
15160;DHT22;7680;48.800;9.680;2022-09-01T01:08:43;14.60;99.90
15160;DHT22;7680;48.800;9.680;2022-09-01T01:11:31;14.60;99.90
15160;DHT22;7680;48.800;9.680;2022-09-01T01:14:07;14.60;99.90
15160;DHT22;7680;48.800;9.680;2022-09-01T01:16:45;14.60;99.90
15160;DHT22;7680;48.800;9.680;2022-09-01T01:19:27;14.60;99.90
15160;DHT22;7680;48.800;9.680;2022-09-01T01:22:28;14.50;99.90
15160;DHT22;7680;48.800;9.680;2022-09-01T01:25:24;14.40;99.90
15160;DHT22;7680;48.800;9.680;2022-09-01T01:28:06;14.30;99.90
15160;DHT22;7680;48.800;9.680;2022-09-01T01:30:43;14.40;99.90
15160;DHT22;7680;48.800;9.680;2022-09-01T01:33:23;14.40;99.90
15160;DHT22;7680;48.800;9.680;2022-09-01T01:35:58;14.40;99.90
15160;DHT22;7680;48.800;9.680;2022-09-01T01:38:33;14.50;99.90
15160;DHT22;7680;48.800;9.680;2022-09-01T01:41:14;14.40;99.90
15160;DHT22;7680;48.800;9.680;2022-09-01T01:44:02;14.40;99.90
15160;DHT22;7680;48.800;9.680;2022-09-01T01:46:51;14.40;99.90
15160;DHT22;7680;48.800;9.680;2022-09-01T01:49:31;14.30;99.90
15160;DHT22;7680;48.800;9.680;2022-09-01T01:52:10;14.30;99.90
15160;DHT22;7680;48.800;9.680;2022-09-01T01:54:48;14.30;99.90
15160;DHT22;7680;48.800;9.680;2022-09-01T01:57:23;14.30;99.90
15160;DHT22;7680;48.800;9.680;2022-09-01T01:59:56;14.30;99.90
15160;DHT22;7680;48.800;9.680;2022-09-01T02:02:29;14.30;99.90
15160;DHT22;7680;48.800;9.680;2022-09-01T02:05:03;14.30;99.90
15160;DHT22;7680;48.800;9.680;2022-09-01T02:07:37;14.30;99.90
15160;DHT22;7680;48.800;9.680;2022-09-01T02:10:14;14.30;99.90
15160;DHT22;7680;48.800;9.680;2022-09-01T02:12:49;14.30;99.90
15160;DHT22;7680;48.800;9.680;2022-09-01T02:15:23;14.30;99.90
15160;DHT22;7680;48.800;9.680;2022-09-01T02:17:56;14.30;99.90
15160;DHT22;7680;48.800;9.680;2022-09-01T02:20:35;14.30;99.90
15160;DHT22;7680;48.800;9.680;2022-09-01T02:23:09;14.20;99.90
15160;DHT22;7680;48.800;9.680;2022-09-01T02:25:44;14.20;99.90
15160;DHT22;7680;48.800;9.680;2022-09-01T02:28:39;14.20;99.90
15160;DHT22;7680;48.800;9.680;2022-09-01T02:31:13;14.20;99.90
15160;DHT22;7680;48.800;9.680;2022-09-01T02:33:46;14.20;99.90
15160;DHT22;7680;48.800;9.680;2022-09-01T02:36:20;14.20;99.90
15160;DHT22;7680;48.800;9.680;2022-09-01T02:38:55;14.20;99.90
15160;DHT22;7680;48.800;9.680;2022-09-01T02:41:29;14.20;99.90
15160;DHT22;7680;48.800;9.680;2022-09-01T02:44:06;14.00;99.90
15160;DHT22;7680;48.800;9.680;2022-09-01T02:46:44;14.00;99.90
15160;DHT22;7680;48.800;9.680;2022-09-01T02:49:19;13.90;99.90
15160;DHT22;7680;48.800;9.680;2022-09-01T02:51:57;13.80;99.90
15160;DHT22;7680;48.800;9.680;2022-09-01T02:54:33;13.80;99.90
15160;DHT22;7680;48.800;9.680;2022-09-01T02:57:06;13.70;99.90
15160;DHT22;7680;48.800;9.680;2022-09-01T02:59:41;13.70;99.90
15160;DHT22;7680;48.800;9.680;2022-09-01T03:02:14;13.70;99.90
15160;DHT22;7680;48.800;9.680;2022-09-01T03:04:47;13.80;99.90
15160;DHT22;7680;48.800;9.680;2022-09-01T03:07:21;13.80;99.90
15160;DHT22;7680;48.800;9.680;2022-09-01T03:09:54;13.70;99.90
15160;DHT22;7680;48.800;9.680;2022-09-01T03:12:27;13.50;99.90
15160;DHT22;7680;48.800;9.680;2022-09-01T03:15:02;13.40;99.90
15160;DHT22;7680;48.800;9.680;2022-09-01T03:17:39;13.40;99.90
15160;DHT22;7680;48.800;9.680;2022-09-01T03:20:13;13.40;99.90
15160;DHT22;7680;48.800;9.680;2022-09-01T03:22:47;13.50;99.90
15160;DHT22;7680;48.800;9.680;2022-09-01T03:25:21;13.50;99.90
15160;DHT22;7680;48.800;9.680;2022-09-01T03:27:55;13.50;99.90
15160;DHT22;7680;48.800;9.680;2022-09-01T03:30:36;13.50;99.90
15160;DHT22;7680;48.800;9.680;2022-09-01T03:33:11;13.60;99.90
15160;DHT22;7680;48.800;9.680;2022-09-01T03:35:44;13.60;99.90
15160;DHT22;7680;48.800;9.680;2022-09-01T03:38:18;13.50;99.90
15160;DHT22;7680;48.800;9.680;2022-09-01T03:40:58;13.50;99.90
15160;DHT22;7680;48.800;9.680;2022-09-01T03:43:33;13.40;99.90
15160;DHT22;7680;48.800;9.680;2022-09-01T03:46:08;13.40;99.90
15160;DHT22;7680;48.800;9.680;2022-09-01T03:48:41;13.40;99.90
15160;DHT22;7680;48.800;9.680;2022-09-01T03:51:15;13.40;99.90
15160;DHT22;7680;48.800;9.680;2022-09-01T03:53:48;13.50;99.90
15160;DHT22;7680;48.800;9.680;2022-09-01T03:56:26;13.50;99.90
15160;DHT22;7680;48.800;9.680;2022-09-01T03:59:00;13.60;99.90
15160;DHT22;7680;48.800;9.680;2022-09-01T04:01:35;13.70;99.90
15160;DHT22;7680;48.800;9.680;2022-09-01T04:04:12;13.80;99.90
15160;DHT22;7680;48.800;9.680;2022-09-01T04:06:46;13.90;99.90
15160;DHT22;7680;48.800;9.680;2022-09-01T04:09:19;13.90;99.90
15160;DHT22;7680;48.800;9.680;2022-09-01T04:11:53;13.90;99.90
15160;DHT22;7680;48.800;9.680;2022-09-01T04:14:26;13.80;99.90
15160;DHT22;7680;48.800;9.680;2022-09-01T04:17:02;13.80;99.90
15160;DHT22;7680;48.800;9.680;2022-09-01T04:19:56;13.80;99.90
15160;DHT22;7680;48.800;9.680;2022-09-01T04:22:29;13.80;99.90
15160;DHT22;7680;48.800;9.680;2022-09-01T04:25:03;13.80;99.90
15160;DHT22;7680;48.800;9.680;2022-09-01T04:27:37;13.80;99.90
15160;DHT22;7680;48.800;9.680;2022-09-01T04:30:11;13.80;99.90
15160;DHT22;7680;48.800;9.680;2022-09-01T04:32:45;13.80;99.90
15160;DHT22;7680;48.800;9.680;2022-09-01T04:35:18;13.80;99.90
15160;DHT22;7680;48.800;9.680;2022-09-01T04:37:58;13.90;99.90
15160;DHT22;7680;48.800;9.680;2022-09-01T04:40:32;13.90;99.90
15160;DHT22;7680;48.800;9.680;2022-09-01T04:43:09;13.90;99.90
15160;DHT22;7680;48.800;9.680;2022-09-01T04:45:45;14.00;99.90
15160;DHT22;7680;48.800;9.680;2022-09-01T04:48:24;14.10;99.90
15160;DHT22;7680;48.800;9.680;2022-09-01T04:51:00;14.10;99.90
15160;DHT22;7680;48.800;9.680;2022-09-01T04:53:33;14.00;99.90
15160;DHT22;7680;48.800;9.680;2022-09-01T04:56:07;14.00;99.90
15160;DHT22;7680;48.800;9.680;2022-09-01T04:58:41;14.00;99.90
15160;DHT22;7680;48.800;9.680;2022-09-01T05:01:16;14.00;99.90
15160;DHT22;7680;48.800;9.680;2022-09-01T05:03:52;14.00;99.90
15160;DHT22;7680;48.800;9.680;2022-09-01T05:06:29;14.10;99.90
15160;DHT22;7680;48.800;9.680;2022-09-01T05:09:04;14.20;99.90
15160;DHT22;7680;48.800;9.680;2022-09-01T05:11:40;14.30;99.90
15160;DHT22;7680;48.800;9.680;2022-09-01T05:14:17;14.30;99.90
15160;DHT22;7680;48.800;9.680;2022-09-01T05:16:56;14.20;99.90
15160;DHT22;7680;48.800;9.680;2022-09-01T05:19:31;14.20;99.90
15160;DHT22;7680;48.800;9.680;2022-09-01T05:22:05;14.30;99.90
15160;DHT22;7680;48.800;9.680;2022-09-01T05:24:39;14.30;99.90
15160;DHT22;7680;48.800;9.680;2022-09-01T05:27:13;14.30;99.90
15160;DHT22;7680;48.800;9.680;2022-09-01T05:29:46;14.30;99.90
15160;DHT22;7680;48.800;9.680;2022-09-01T05:32:21;14.40;99.90
15160;DHT22;7680;48.800;9.680;2022-09-01T05:34:58;14.40;99.90
15160;DHT22;7680;48.800;9.680;2022-09-01T05:37:33;14.40;99.90
15160;DHT22;7680;48.800;9.680;2022-09-01T05:40:09;14.50;99.90
15160;DHT22;7680;48.800;9.680;2022-09-01T05:42:47;14.60;99.90
15160;DHT22;7680;48.800;9.680;2022-09-01T05:45:20;14.70;99.90
15160;DHT22;7680;48.800;9.680;2022-09-01T05:47:53;14.80;99.90
15160;DHT22;7680;48.800;9.680;2022-09-01T05:50:29;14.90;99.90
15160;DHT22;7680;48.800;9.680;2022-09-01T05:53:02;15.00;99.90
15160;DHT22;7680;48.800;9.680;2022-09-01T05:55:44;15.00;99.90
15160;DHT22;7680;48.800;9.680;2022-09-01T05:58:19;15.10;99.90
15160;DHT22;7680;48.800;9.680;2022-09-01T06:00:54;15.20;99.90
15160;DHT22;7680;48.800;9.680;2022-09-01T06:03:29;15.30;99.90
15160;DHT22;7680;48.800;9.680;2022-09-01T06:06:10;15.40;99.90
15160;DHT22;7680;48.800;9.680;2022-09-01T06:08:43;15.40;99.90
15160;DHT22;7680;48.800;9.680;2022-09-01T06:11:19;15.40;99.90
15160;DHT22;7680;48.800;9.680;2022-09-01T06:13:55;15.40;99.90
15160;DHT22;7680;48.800;9.680;2022-09-01T06:16:29;15.50;99.90
15160;DHT22;7680;48.800;9.680;2022-09-01T06:19:03;15.50;99.90
15160;DHT22;7680;48.800;9.680;2022-09-01T06:21:39;15.70;99.90
15160;DHT22;7680;48.800;9.680;2022-09-01T06:24:12;15.80;99.90
15160;DHT22;7680;48.800;9.680;2022-09-01T06:26:45;15.90;99.90
15160;DHT22;7680;48.800;9.680;2022-09-01T06:29:18;16.00;99.90
15160;DHT22;7680;48.800;9.680;2022-09-01T06:31:51;16.10;99.90
15160;DHT22;7680;48.800;9.680;2022-09-01T06:34:24;16.20;99.90
15160;DHT22;7680;48.800;9.680;2022-09-01T06:36:59;16.10;99.90
15160;DHT22;7680;48.800;9.680;2022-09-01T06:39:32;16.20;99.90
15160;DHT22;7680;48.800;9.680;2022-09-01T06:42:06;16.30;99.90
15160;DHT22;7680;48.800;9.680;2022-09-01T06:44:40;16.50;99.90
15160;DHT22;7680;48.800;9.680;2022-09-01T06:47:13;16.70;99.90
15160;DHT22;7680;48.800;9.680;2022-09-01T06:49:47;16.70;99.90
15160;DHT22;7680;48.800;9.680;2022-09-01T06:52:26;16.80;99.90
15160;DHT22;7680;48.800;9.680;2022-09-01T06:55:19;16.90;99.90
15160;DHT22;7680;48.800;9.680;2022-09-01T06:57:52;16.90;99.90
15160;DHT22;7680;48.800;9.680;2022-09-01T07:00:36;17.00;99.90
15160;DHT22;7680;48.800;9.680;2022-09-01T07:03:14;17.20;99.90
15160;DHT22;7680;48.800;9.680;2022-09-01T07:05:48;17.10;99.90
15160;DHT22;7680;48.800;9.680;2022-09-01T07:08:33;17.10;99.90
15160;DHT22;7680;48.800;9.680;2022-09-01T07:11:32;17.30;99.90
15160;DHT22;7680;48.800;9.680;2022-09-01T07:14:26;17.60;99.90
15160;DHT22;7680;48.800;9.680;2022-09-01T07:16:59;17.60;99.90
15160;DHT22;7680;48.800;9.680;2022-09-01T07:19:53;17.70;99.90
15160;DHT22;7680;48.800;9.680;2022-09-01T07:22:26;18.10;99.90
15160;DHT22;7680;48.800;9.680;2022-09-01T07:25:21;18.60;99.90
15160;DHT22;7680;48.800;9.680;2022-09-01T07:27:54;19.40;99.90
15160;DHT22;7680;48.800;9.680;2022-09-01T07:30:31;20.00;99.90
15160;DHT22;7680;48.800;9.680;2022-09-01T07:33:11;19.80;99.90
15160;DHT22;7680;48.800;9.680;2022-09-01T07:36:04;19.80;99.90
15160;DHT22;7680;48.800;9.680;2022-09-01T07:38:59;20.00;99.90
15160;DHT22;7680;48.800;9.680;2022-09-01T07:41:54;19.70;99.90
15160;DHT22;7680;48.800;9.680;2022-09-01T07:44:49;19.80;99.90
15160;DHT22;7680;48.800;9.680;2022-09-01T07:47:22;20.30;99.90
15160;DHT22;7680;48.800;9.680;2022-09-01T07:50:16;20.20;99.90
15160;DHT22;7680;48.800;9.680;2022-09-01T07:53:10;20.00;99.90
15160;DHT22;7680;48.800;9.680;2022-09-01T07:55:48;20.00;99.90
15160;DHT22;7680;48.800;9.680;2022-09-01T07:58:26;20.10;99.90
15160;DHT22;7680;48.800;9.680;2022-09-01T08:01:00;19.90;99.90
15160;DHT22;7680;48.800;9.680;2022-09-01T08:03:34;19.70;99.90
15160;DHT22;7680;48.800;9.680;2022-09-01T08:06:10;19.70;99.90
15160;DHT22;7680;48.800;9.680;2022-09-01T08:08:46;19.70;99.90
15160;DHT22;7680;48.800;9.680;2022-09-01T08:11:22;19.50;99.90
15160;DHT22;7680;48.800;9.680;2022-09-01T08:14:17;19.50;99.90
15160;DHT22;7680;48.800;9.680;2022-09-01T08:16:51;19.40;99.90
15160;DHT22;7680;48.800;9.680;2022-09-01T08:19:24;19.50;99.90
15160;DHT22;7680;48.800;9.680;2022-09-01T08:21:57;19.60;99.90
15160;DHT22;7680;48.800;9.680;2022-09-01T08:24:30;19.80;99.90
15160;DHT22;7680;48.800;9.680;2022-09-01T08:27:03;20.20;99.90
15160;DHT22;7680;48.800;9.680;2022-09-01T08:29:38;20.10;99.90
15160;DHT22;7680;48.800;9.680;2022-09-01T08:32:11;20.00;99.90
15160;DHT22;7680;48.800;9.680;2022-09-01T08:34:44;19.90;99.90
15160;DHT22;7680;48.800;9.680;2022-09-01T08:37:17;19.90;99.90
15160;DHT22;7680;48.800;9.680;2022-09-01T08:39:51;19.80;99.90
15160;DHT22;7680;48.800;9.680;2022-09-01T08:42:39;20.10;99.90
15160;DHT22;7680;48.800;9.680;2022-09-01T08:45:23;20.00;99.90
15160;DHT22;7680;48.800;9.680;2022-09-01T08:48:06;20.00;99.90
15160;DHT22;7680;48.800;9.680;2022-09-01T08:51:13;20.30;99.90
15160;DHT22;7680;48.800;9.680;2022-09-01T08:54:00;20.10;99.90
15160;DHT22;7680;48.800;9.680;2022-09-01T08:56:36;20.10;99.90
15160;DHT22;7680;48.800;9.680;2022-09-01T08:59:10;20.10;99.90
15160;DHT22;7680;48.800;9.680;2022-09-01T09:01:52;20.40;99.90
15160;DHT22;7680;48.800;9.680;2022-09-01T09:04:39;20.80;99.90
15160;DHT22;7680;48.800;9.680;2022-09-01T09:07:32;21.00;99.90
15160;DHT22;7680;48.800;9.680;2022-09-01T09:10:15;20.80;99.90
15160;DHT22;7680;48.800;9.680;2022-09-01T09:12:58;20.70;99.90
15160;DHT22;7680;48.800;9.680;2022-09-01T09:15:41;20.70;99.90
15160;DHT22;7680;48.800;9.680;2022-09-01T09:18:24;20.40;99.90
15160;DHT22;7680;48.800;9.680;2022-09-01T09:21:14;20.30;99.90
15160;DHT22;7680;48.800;9.680;2022-09-01T09:23:53;20.40;99.90
15160;DHT22;7680;48.800;9.680;2022-09-01T09:26:30;20.40;99.90
15160;DHT22;7680;48.800;9.680;2022-09-01T09:29:19;20.40;99.90
15160;DHT22;7680;48.800;9.680;2022-09-01T09:32:03;20.50;99.90
15160;DHT22;7680;48.800;9.680;2022-09-01T09:34:54;20.70;99.90
15160;DHT22;7680;48.800;9.680;2022-09-01T09:37:30;20.80;99.90
15160;DHT22;7680;48.800;9.680;2022-09-01T09:40:08;20.70;99.90
15160;DHT22;7680;48.800;9.680;2022-09-01T09:43:01;20.80;99.90
15160;DHT22;7680;48.800;9.680;2022-09-01T09:45:39;21.20;99.90
15160;DHT22;7680;48.800;9.680;2022-09-01T09:48:26;21.50;99.90
15160;DHT22;7680;48.800;9.680;2022-09-01T09:51:15;21.50;99.90
15160;DHT22;7680;48.800;9.680;2022-09-01T09:53:49;21.30;99.90
15160;DHT22;7680;48.800;9.680;2022-09-01T09:56:23;21.50;99.90
15160;DHT22;7680;48.800;9.680;2022-09-01T09:58:57;21.50;99.90
15160;DHT22;7680;48.800;9.680;2022-09-01T10:01:30;21.40;99.90
15160;DHT22;7680;48.800;9.680;2022-09-01T10:04:03;20.90;99.90
15160;DHT22;7680;48.800;9.680;2022-09-01T10:06:40;20.90;99.90
15160;DHT22;7680;48.800;9.680;2022-09-01T10:09:33;20.90;99.90
15160;DHT22;7680;48.800;9.680;2022-09-01T10:12:09;21.20;99.90
15160;DHT22;7680;48.800;9.680;2022-09-01T10:14:47;21.40;99.90
15160;DHT22;7680;48.800;9.680;2022-09-01T10:17:29;21.70;99.90
15160;DHT22;7680;48.800;9.680;2022-09-01T10:20:11;21.90;99.90
15160;DHT22;7680;48.800;9.680;2022-09-01T10:22:50;21.60;99.90
15160;DHT22;7680;48.800;9.680;2022-09-01T10:25:28;21.60;99.90
15160;DHT22;7680;48.800;9.680;2022-09-01T10:28:08;21.80;99.90
15160;DHT22;7680;48.800;9.680;2022-09-01T10:30:53;21.90;99.20
15160;DHT22;7680;48.800;9.680;2022-09-01T10:33:27;21.70;99.40
15160;DHT22;7680;48.800;9.680;2022-09-01T10:36:05;21.70;99.80
15160;DHT22;7680;48.800;9.680;2022-09-01T10:38:42;21.90;99.40
15160;DHT22;7680;48.800;9.680;2022-09-01T10:41:44;21.60;99.30
15160;DHT22;7680;48.800;9.680;2022-09-01T10:44:32;21.90;99.60
15160;DHT22;7680;48.800;9.680;2022-09-01T10:47:23;22.10;99.00
15160;DHT22;7680;48.800;9.680;2022-09-01T10:50:04;22.30;97.80
15160;DHT22;7680;48.800;9.680;2022-09-01T10:52:58;22.10;98.40
15160;DHT22;7680;48.800;9.680;2022-09-01T10:56:00;22.10;98.30
15160;DHT22;7680;48.800;9.680;2022-09-01T10:59:03;22.00;98.60
15160;DHT22;7680;48.800;9.680;2022-09-01T11:02:09;22.10;98.80
15160;DHT22;7680;48.800;9.680;2022-09-01T11:05:11;21.80;98.80
15160;DHT22;7680;48.800;9.680;2022-09-01T11:07:48;21.80;98.30
15160;DHT22;7680;48.800;9.680;2022-09-01T11:10:52;21.70;98.40
15160;DHT22;7680;48.800;9.680;2022-09-01T11:13:35;21.90;98.90
15160;DHT22;7680;48.800;9.680;2022-09-01T11:16:32;22.20;98.50
15160;DHT22;7680;48.800;9.680;2022-09-01T11:19:37;22.10;98.00
15160;DHT22;7680;48.800;9.680;2022-09-01T11:22:30;22.20;98.20
15160;DHT22;7680;48.800;9.680;2022-09-01T11:25:30;22.20;97.30
15160;DHT22;7680;48.800;9.680;2022-09-01T11:28:36;22.10;96.50
15160;DHT22;7680;48.800;9.680;2022-09-01T11:31:28;21.90;96.40
15160;DHT22;7680;48.800;9.680;2022-09-01T11:34:10;21.90;96.70
15160;DHT22;7680;48.800;9.680;2022-09-01T11:36:55;22.00;97.40
15160;DHT22;7680;48.800;9.680;2022-09-01T11:39:45;22.10;97.70
15160;DHT22;7680;48.800;9.680;2022-09-01T11:42:26;22.20;97.70
15160;DHT22;7680;48.800;9.680;2022-09-01T11:45:06;22.40;97.40
15160;DHT22;7680;48.800;9.680;2022-09-01T11:47:55;22.60;97.20
15160;DHT22;7680;48.800;9.680;2022-09-01T11:50:35;22.80;96.80
15160;DHT22;7680;48.800;9.680;2022-09-01T11:53:14;22.70;96.20
15160;DHT22;7680;48.800;9.680;2022-09-01T11:55:56;22.40;97.10
15160;DHT22;7680;48.800;9.680;2022-09-01T11:58:46;22.20;96.70
15160;DHT22;7680;48.800;9.680;2022-09-01T12:01:31;21.90;97.30
15160;DHT22;7680;48.800;9.680;2022-09-01T12:04:20;22.10;97.50
15160;DHT22;7680;48.800;9.680;2022-09-01T12:07:00;22.10;96.70
15160;DHT22;7680;48.800;9.680;2022-09-01T12:09:42;21.90;96.70
15160;DHT22;7680;48.800;9.680;2022-09-01T12:12:28;21.90;97.00
15160;DHT22;7680;48.800;9.680;2022-09-01T12:15:08;21.70;96.70
15160;DHT22;7680;48.800;9.680;2022-09-01T12:17:46;21.50;96.70
15160;DHT22;7680;48.800;9.680;2022-09-01T12:20:23;21.80;96.70
15160;DHT22;7680;48.800;9.680;2022-09-01T12:23:01;21.60;96.90
15160;DHT22;7680;48.800;9.680;2022-09-01T12:25:36;21.50;97.00
15160;DHT22;7680;48.800;9.680;2022-09-01T12:28:11;21.60;97.10
15160;DHT22;7680;48.800;9.680;2022-09-01T12:30:47;21.60;97.10
15160;DHT22;7680;48.800;9.680;2022-09-01T12:33:25;21.60;96.60
15160;DHT22;7680;48.800;9.680;2022-09-01T12:36:24;21.70;96.80
15160;DHT22;7680;48.800;9.680;2022-09-01T12:39:17;21.90;96.70
15160;DHT22;7680;48.800;9.680;2022-09-01T12:42:10;22.20;95.80
15160;DHT22;7680;48.800;9.680;2022-09-01T12:44:57;22.40;95.70
15160;DHT22;7680;48.800;9.680;2022-09-01T12:47:49;22.20;95.40
15160;DHT22;7680;48.800;9.680;2022-09-01T12:50:53;22.10;94.60
15160;DHT22;7680;48.800;9.680;2022-09-01T12:53:30;22.30;95.10
15160;DHT22;7680;48.800;9.680;2022-09-01T12:56:29;22.40;94.20
15160;DHT22;7680;48.800;9.680;2022-09-01T12:59:08;22.10;94.80
15160;DHT22;7680;48.800;9.680;2022-09-01T13:01:48;22.10;95.30
15160;DHT22;7680;48.800;9.680;2022-09-01T13:04:26;22.00;95.70
15160;DHT22;7680;48.800;9.680;2022-09-01T13:07:05;22.10;96.20
15160;DHT22;7680;48.800;9.680;2022-09-01T13:09:40;22.40;95.50
15160;DHT22;7680;48.800;9.680;2022-09-01T13:12:18;22.40;95.40
15160;DHT22;7680;48.800;9.680;2022-09-01T13:14:53;22.40;95.50
15160;DHT22;7680;48.800;9.680;2022-09-01T13:17:28;22.30;95.30
15160;DHT22;7680;48.800;9.680;2022-09-01T13:20:03;22.20;95.50
15160;DHT22;7680;48.800;9.680;2022-09-01T13:22:39;22.30;95.30
15160;DHT22;7680;48.800;9.680;2022-09-01T13:25:18;22.40;95.50
15160;DHT22;7680;48.800;9.680;2022-09-01T13:27:53;22.00;95.30
15160;DHT22;7680;48.800;9.680;2022-09-01T13:30:29;22.20;95.60
15160;DHT22;7680;48.800;9.680;2022-09-01T13:33:04;22.30;95.70
15160;DHT22;7680;48.800;9.680;2022-09-01T13:35:54;22.30;94.90
15160;DHT22;7680;48.800;9.680;2022-09-01T13:38:31;22.20;94.90
15160;DHT22;7680;48.800;9.680;2022-09-01T13:41:05;22.30;95.00
15160;DHT22;7680;48.800;9.680;2022-09-01T13:43:42;22.30;94.80
15160;DHT22;7680;48.800;9.680;2022-09-01T13:46:19;22.20;95.00
15160;DHT22;7680;48.800;9.680;2022-09-01T13:48:53;22.50;94.50
15160;DHT22;7680;48.800;9.680;2022-09-01T13:51:50;22.60;94.60
15160;DHT22;7680;48.800;9.680;2022-09-01T13:54:26;22.70;93.70
15160;DHT22;7680;48.800;9.680;2022-09-01T13:57:01;22.70;93.20
15160;DHT22;7680;48.800;9.680;2022-09-01T13:59:36;22.70;93.40
15160;DHT22;7680;48.800;9.680;2022-09-01T14:02:10;22.70;92.70
15160;DHT22;7680;48.800;9.680;2022-09-01T14:04:45;22.60;92.50
15160;DHT22;7680;48.800;9.680;2022-09-01T14:07:19;22.70;92.80
15160;DHT22;7680;48.800;9.680;2022-09-01T14:09:55;22.70;92.40
15160;DHT22;7680;48.800;9.680;2022-09-01T14:12:30;22.70;91.90
15160;DHT22;7680;48.800;9.680;2022-09-01T14:15:06;22.50;92.00
15160;DHT22;7680;48.800;9.680;2022-09-01T14:17:48;22.60;92.30
15160;DHT22;7680;48.800;9.680;2022-09-01T14:20:26;22.70;92.90
15160;DHT22;7680;48.800;9.680;2022-09-01T14:23:08;22.70;92.50
15160;DHT22;7680;48.800;9.680;2022-09-01T14:25:46;22.90;92.10
15160;DHT22;7680;48.800;9.680;2022-09-01T14:28:22;23.20;91.80
15160;DHT22;7680;48.800;9.680;2022-09-01T14:30:57;23.20;92.00
15160;DHT22;7680;48.800;9.680;2022-09-01T14:33:37;23.20;92.20
15160;DHT22;7680;48.800;9.680;2022-09-01T14:36:17;23.50;91.90
15160;DHT22;7680;48.800;9.680;2022-09-01T14:38:53;23.80;90.60
15160;DHT22;7680;48.800;9.680;2022-09-01T14:41:30;23.60;90.50
15160;DHT22;7680;48.800;9.680;2022-09-01T14:44:05;23.50;90.30
15160;DHT22;7680;48.800;9.680;2022-09-01T14:46:40;23.20;90.60
15160;DHT22;7680;48.800;9.680;2022-09-01T14:49:15;23.10;91.00
15160;DHT22;7680;48.800;9.680;2022-09-01T14:51:53;23.00;90.80
15160;DHT22;7680;48.800;9.680;2022-09-01T14:54:43;23.10;90.90
15160;DHT22;7680;48.800;9.680;2022-09-01T14:57:22;23.20;90.70
15160;DHT22;7680;48.800;9.680;2022-09-01T15:00:10;23.30;90.90
15160;DHT22;7680;48.800;9.680;2022-09-01T15:02:44;23.50;90.80
15160;DHT22;7680;48.800;9.680;2022-09-01T15:05:18;23.40;90.90
15160;DHT22;7680;48.800;9.680;2022-09-01T15:07:51;23.60;90.80
15160;DHT22;7680;48.800;9.680;2022-09-01T15:10:25;23.40;91.40
15160;DHT22;7680;48.800;9.680;2022-09-01T15:13:00;23.60;91.40
15160;DHT22;7680;48.800;9.680;2022-09-01T15:15:34;23.40;91.40
15160;DHT22;7680;48.800;9.680;2022-09-01T15:18:07;23.30;91.10
15160;DHT22;7680;48.800;9.680;2022-09-01T15:20:41;23.20;91.70
15160;DHT22;7680;48.800;9.680;2022-09-01T15:23:19;23.40;91.70
15160;DHT22;7680;48.800;9.680;2022-09-01T15:25:54;23.20;91.40
15160;DHT22;7680;48.800;9.680;2022-09-01T15:28:29;22.90;91.50
15160;DHT22;7680;48.800;9.680;2022-09-01T15:31:02;22.60;92.10
15160;DHT22;7680;48.800;9.680;2022-09-01T15:33:36;22.60;92.40
15160;DHT22;7680;48.800;9.680;2022-09-01T15:36:19;22.60;92.30
15160;DHT22;7680;48.800;9.680;2022-09-01T15:38:53;22.40;92.50
15160;DHT22;7680;48.800;9.680;2022-09-01T15:41:28;22.70;92.10
15160;DHT22;7680;48.800;9.680;2022-09-01T15:44:07;22.50;92.20
15160;DHT22;7680;48.800;9.680;2022-09-01T15:46:40;22.60;91.90
15160;DHT22;7680;48.800;9.680;2022-09-01T15:49:15;22.70;91.60
15160;DHT22;7680;48.800;9.680;2022-09-01T15:51:49;22.60;91.60
15160;DHT22;7680;48.800;9.680;2022-09-01T15:54:22;22.40;91.90
15160;DHT22;7680;48.800;9.680;2022-09-01T15:57:01;22.40;92.00
15160;DHT22;7680;48.800;9.680;2022-09-01T15:59:36;22.40;92.10
15160;DHT22;7680;48.800;9.680;2022-09-01T16:02:11;22.60;91.90
15160;DHT22;7680;48.800;9.680;2022-09-01T16:04:46;22.40;91.90
15160;DHT22;7680;48.800;9.680;2022-09-01T16:07:19;22.30;92.40
15160;DHT22;7680;48.800;9.680;2022-09-01T16:09:52;22.50;92.30
15160;DHT22;7680;48.800;9.680;2022-09-01T16:12:28;22.30;92.10
15160;DHT22;7680;48.800;9.680;2022-09-01T16:15:04;22.30;92.10
15160;DHT22;7680;48.800;9.680;2022-09-01T16:18:02;22.40;92.20
15160;DHT22;7680;48.800;9.680;2022-09-01T16:20:49;22.40;92.00
15160;DHT22;7680;48.800;9.680;2022-09-01T16:23:33;22.40;91.90
15160;DHT22;7680;48.800;9.680;2022-09-01T16:26:12;22.30;92.20
15160;DHT22;7680;48.800;9.680;2022-09-01T16:28:48;22.20;92.50
15160;DHT22;7680;48.800;9.680;2022-09-01T16:31:27;22.10;92.50
15160;DHT22;7680;48.800;9.680;2022-09-01T16:34:10;22.30;92.20
15160;DHT22;7680;48.800;9.680;2022-09-01T16:36:55;22.20;91.90
15160;DHT22;7680;48.800;9.680;2022-09-01T16:39:38;22.00;91.60
15160;DHT22;7680;48.800;9.680;2022-09-01T16:42:20;22.00;91.70
15160;DHT22;7680;48.800;9.680;2022-09-01T16:45:02;22.10;91.80
15160;DHT22;7680;48.800;9.680;2022-09-01T16:47:49;22.10;91.60
15160;DHT22;7680;48.800;9.680;2022-09-01T16:50:35;22.10;91.40
15160;DHT22;7680;48.800;9.680;2022-09-01T16:53:21;22.00;91.60
15160;DHT22;7680;48.800;9.680;2022-09-01T16:56:06;22.00;91.50
15160;DHT22;7680;48.800;9.680;2022-09-01T16:58:46;21.90;91.60
15160;DHT22;7680;48.800;9.680;2022-09-01T17:01:34;21.90;91.50